sensor_id;sensor_type;location;lat;lon;timestamp;temperature;humidity
25300;DHT22;13241;51.208;4.432;2023-04-24T00:01:22;10.80;99.90
25300;DHT22;13241;51.208;4.432;2023-04-24T00:03:49;10.80;99.90
25300;DHT22;13241;51.208;4.432;2023-04-24T00:06:16;10.80;99.90
25300;DHT22;13241;51.208;4.432;2023-04-24T00:08:43;10.80;99.90
25300;DHT22;13241;51.208;4.432;2023-04-24T00:11:10;10.70;99.90
25300;DHT22;13241;51.208;4.432;2023-04-24T00:13:37;10.70;99.90
25300;DHT22;13241;51.208;4.432;2023-04-24T00:16:04;10.70;99.90
25300;DHT22;13241;51.208;4.432;2023-04-24T00:18:32;10.70;99.90
25300;DHT22;13241;51.208;4.432;2023-04-24T00:20:59;10.70;99.90
25300;DHT22;13241;51.208;4.432;2023-04-24T00:23:26;10.70;99.90
25300;DHT22;13241;51.208;4.432;2023-04-24T00:25:53;10.70;99.90
25300;DHT22;13241;51.208;4.432;2023-04-24T00:28:20;10.70;99.90
25300;DHT22;13241;51.208;4.432;2023-04-24T00:30:47;10.70;99.90
25300;DHT22;13241;51.208;4.432;2023-04-24T00:33:14;10.70;99.90
25300;DHT22;13241;51.208;4.432;2023-04-24T00:35:41;10.60;99.90
25300;DHT22;13241;51.208;4.432;2023-04-24T00:38:10;10.60;99.90
25300;DHT22;13241;51.208;4.432;2023-04-24T00:40:37;10.60;99.90
25300;DHT22;13241;51.208;4.432;2023-04-24T00:43:04;10.60;99.90
25300;DHT22;13241;51.208;4.432;2023-04-24T00:45:30;10.60;99.90
25300;DHT22;13241;51.208;4.432;2023-04-24T00:47:58;10.60;99.90
25300;DHT22;13241;51.208;4.432;2023-04-24T00:50:25;10.60;99.90
25300;DHT22;13241;51.208;4.432;2023-04-24T00:52:53;10.50;99.90
25300;DHT22;13241;51.208;4.432;2023-04-24T00:55:20;10.50;99.90
25300;DHT22;13241;51.208;4.432;2023-04-24T00:57:47;10.50;99.90
25300;DHT22;13241;51.208;4.432;2023-04-24T01:00:15;10.50;99.90
25300;DHT22;13241;51.208;4.432;2023-04-24T01:02:44;10.50;99.90
25300;DHT22;13241;51.208;4.432;2023-04-24T01:05:15;10.40;99.90
25300;DHT22;13241;51.208;4.432;2023-04-24T01:07:45;10.40;99.90
25300;DHT22;13241;51.208;4.432;2023-04-24T01:10:14;10.40;99.90
25300;DHT22;13241;51.208;4.432;2023-04-24T01:12:41;10.40;99.90
25300;DHT22;13241;51.208;4.432;2023-04-24T01:15:08;10.40;99.90
25300;DHT22;13241;51.208;4.432;2023-04-24T01:17:35;10.40;99.90
25300;DHT22;13241;51.208;4.432;2023-04-24T01:20:03;10.40;99.90
25300;DHT22;13241;51.208;4.432;2023-04-24T01:22:35;10.40;99.90
25300;DHT22;13241;51.208;4.432;2023-04-24T01:25:03;10.40;99.90
25300;DHT22;13241;51.208;4.432;2023-04-24T01:27:30;10.40;99.90
25300;DHT22;13241;51.208;4.432;2023-04-24T01:29:57;10.40;99.90
25300;DHT22;13241;51.208;4.432;2023-04-24T01:32:24;10.50;99.90
25300;DHT22;13241;51.208;4.432;2023-04-24T01:34:52;10.40;99.90
25300;DHT22;13241;51.208;4.432;2023-04-24T01:37:19;10.50;99.90
25300;DHT22;13241;51.208;4.432;2023-04-24T01:39:46;10.40;99.90
25300;DHT22;13241;51.208;4.432;2023-04-24T01:42:13;10.40;99.90
25300;DHT22;13241;51.208;4.432;2023-04-24T01:44:41;10.30;99.90
25300;DHT22;13241;51.208;4.432;2023-04-24T01:47:08;10.40;99.90
25300;DHT22;13241;51.208;4.432;2023-04-24T01:49:38;10.50;99.90
25300;DHT22;13241;51.208;4.432;2023-04-24T01:52:05;10.60;99.90
25300;DHT22;13241;51.208;4.432;2023-04-24T01:54:32;10.40;99.90
25300;DHT22;13241;51.208;4.432;2023-04-24T01:56:59;10.40;99.90
25300;DHT22;13241;51.208;4.432;2023-04-24T01:59:28;10.50;99.90
25300;DHT22;13241;51.208;4.432;2023-04-24T02:01:55;10.40;99.90
25300;DHT22;13241;51.208;4.432;2023-04-24T02:04:22;10.40;99.90
25300;DHT22;13241;51.208;4.432;2023-04-24T02:06:49;10.40;99.90
25300;DHT22;13241;51.208;4.432;2023-04-24T02:09:16;10.40;99.90
25300;DHT22;13241;51.208;4.432;2023-04-24T02:11:43;10.40;99.90
25300;DHT22;13241;51.208;4.432;2023-04-24T02:14:10;10.40;99.90
25300;DHT22;13241;51.208;4.432;2023-04-24T02:16:39;10.40;99.90
25300;DHT22;13241;51.208;4.432;2023-04-24T02:19:06;10.40;99.90
25300;DHT22;13241;51.208;4.432;2023-04-24T02:21:33;10.40;99.90
25300;DHT22;13241;51.208;4.432;2023-04-24T02:24:00;10.40;99.90
25300;DHT22;13241;51.208;4.432;2023-04-24T02:26:27;10.40;99.90
25300;DHT22;13241;51.208;4.432;2023-04-24T02:28:54;10.30;99.90
25300;DHT22;13241;51.208;4.432;2023-04-24T02:31:22;10.40;99.90
25300;DHT22;13241;51.208;4.432;2023-04-24T02:33:51;10.40;99.90
25300;DHT22;13241;51.208;4.432;2023-04-24T02:36:17;10.30;99.90
25300;DHT22;13241;51.208;4.432;2023-04-24T02:38:44;10.20;99.90
25300;DHT22;13241;51.208;4.432;2023-04-24T02:41:12;10.20;99.90
25300;DHT22;13241;51.208;4.432;2023-04-24T02:43:39;10.10;99.90
25300;DHT22;13241;51.208;4.432;2023-04-24T02:46:06;10.10;99.90
25300;DHT22;13241;51.208;4.432;2023-04-24T02:48:33;10.10;99.90
25300;DHT22;13241;51.208;4.432;2023-04-24T02:51:00;10.10;99.90
25300;DHT22;13241;51.208;4.432;2023-04-24T02:53:27;10.00;99.90
25300;DHT22;13241;51.208;4.432;2023-04-24T02:55:53;10.00;99.90
25300;DHT22;13241;51.208;4.432;2023-04-24T02:58:20;9.90;99.90
25300;DHT22;13241;51.208;4.432;2023-04-24T03:00:47;9.90;99.90
25300;DHT22;13241;51.208;4.432;2023-04-24T03:03:14;9.90;99.90
25300;DHT22;13241;51.208;4.432;2023-04-24T03:05:42;9.80;99.90
25300;DHT22;13241;51.208;4.432;2023-04-24T03:08:08;9.80;99.90
25300;DHT22;13241;51.208;4.432;2023-04-24T03:10:36;9.70;99.90
25300;DHT22;13241;51.208;4.432;2023-04-24T03:13:03;9.80;99.90
25300;DHT22;13241;51.208;4.432;2023-04-24T03:15:33;9.60;99.90
25300;DHT22;13241;51.208;4.432;2023-04-24T03:18:00;9.60;99.90
25300;DHT22;13241;51.208;4.432;2023-04-24T03:20:28;9.60;99.90
25300;DHT22;13241;51.208;4.432;2023-04-24T03:22:56;9.60;99.90
25300;DHT22;13241;51.208;4.432;2023-04-24T03:25:23;9.60;99.90
25300;DHT22;13241;51.208;4.432;2023-04-24T03:27:51;9.60;99.90
25300;DHT22;13241;51.208;4.432;2023-04-24T03:30:37;9.50;99.90
25300;DHT22;13241;51.208;4.432;2023-04-24T03:33:05;9.50;99.90
25300;DHT22;13241;51.208;4.432;2023-04-24T03:35:36;9.50;99.90
25300;DHT22;13241;51.208;4.432;2023-04-24T03:38:07;9.50;99.90
25300;DHT22;13241;51.208;4.432;2023-04-24T03:40:43;9.50;99.90
25300;DHT22;13241;51.208;4.432;2023-04-24T03:43:34;9.50;99.90
25300;DHT22;13241;51.208;4.432;2023-04-24T03:46:01;9.60;99.90
25300;DHT22;13241;51.208;4.432;2023-04-24T03:48:31;9.50;99.90
25300;DHT22;13241;51.208;4.432;2023-04-24T03:50:58;9.50;99.90
25300;DHT22;13241;51.208;4.432;2023-04-24T03:53:25;9.60;99.90
25300;DHT22;13241;51.208;4.432;2023-04-24T03:55:54;9.60;99.90
25300;DHT22;13241;51.208;4.432;2023-04-24T03:58:22;9.60;99.90
25300;DHT22;13241;51.208;4.432;2023-04-24T04:00:49;9.50;99.90
25300;DHT22;13241;51.208;4.432;2023-04-24T04:03:36;9.50;99.90
25300;DHT22;13241;51.208;4.432;2023-04-24T04:06:04;9.40;99.90
25300;DHT22;13241;51.208;4.432;2023-04-24T04:08:31;9.60;99.90
25300;DHT22;13241;51.208;4.432;2023-04-24T04:11:00;9.70;99.90
25300;DHT22;13241;51.208;4.432;2023-04-24T04:13:30;9.80;99.90
25300;DHT22;13241;51.208;4.432;2023-04-24T04:15:57;9.70;99.90
25300;DHT22;13241;51.208;4.432;2023-04-24T04:18:24;9.70;99.90
25300;DHT22;13241;51.208;4.432;2023-04-24T04:20:51;9.70;99.90
25300;DHT22;13241;51.208;4.432;2023-04-24T04:23:18;9.60;99.90
25300;DHT22;13241;51.208;4.432;2023-04-24T04:26:04;9.70;99.90
25300;DHT22;13241;51.208;4.432;2023-04-24T04:28:47;9.50;99.90
25300;DHT22;13241;51.208;4.432;2023-04-24T04:31:14;9.60;99.90
25300;DHT22;13241;51.208;4.432;2023-04-24T04:33:41;9.50;99.90
25300;DHT22;13241;51.208;4.432;2023-04-24T04:36:09;9.40;99.90
25300;DHT22;13241;51.208;4.432;2023-04-24T04:38:41;9.50;99.90
25300;DHT22;13241;51.208;4.432;2023-04-24T04:41:29;9.40;99.90
25300;DHT22;13241;51.208;4.432;2023-04-24T04:43:57;9.40;99.90
25300;DHT22;13241;51.208;4.432;2023-04-24T04:46:25;9.40;99.90
25300;DHT22;13241;51.208;4.432;2023-04-24T04:49:00;9.40;99.90
25300;DHT22;13241;51.208;4.432;2023-04-24T04:51:27;9.40;99.90
25300;DHT22;13241;51.208;4.432;2023-04-24T04:53:54;9.30;99.90
25300;DHT22;13241;51.208;4.432;2023-04-24T04:56:21;9.20;99.90
25300;DHT22;13241;51.208;4.432;2023-04-24T04:58:49;9.30;99.90
25300;DHT22;13241;51.208;4.432;2023-04-24T05:01:17;9.30;99.90
25300;DHT22;13241;51.208;4.432;2023-04-24T05:03:46;9.10;99.90
25300;DHT22;13241;51.208;4.432;2023-04-24T05:06:15;9.20;99.90
25300;DHT22;13241;51.208;4.432;2023-04-24T05:08:44;9.10;99.90
25300;DHT22;13241;51.208;4.432;2023-04-24T05:11:25;9.00;99.90
25300;DHT22;13241;51.208;4.432;2023-04-24T05:13:54;9.00;99.90
25300;DHT22;13241;51.208;4.432;2023-04-24T05:16:31;9.10;99.90
25300;DHT22;13241;51.208;4.432;2023-04-24T05:18:58;8.90;99.90
25300;DHT22;13241;51.208;4.432;2023-04-24T05:21:30;8.90;99.90
25300;DHT22;13241;51.208;4.432;2023-04-24T05:23:58;9.00;99.90
25300;DHT22;13241;51.208;4.432;2023-04-24T05:26:41;8.90;99.90
25300;DHT22;13241;51.208;4.432;2023-04-24T05:29:09;8.90;99.90
25300;DHT22;13241;51.208;4.432;2023-04-24T05:31:36;9.00;99.90
25300;DHT22;13241;51.208;4.432;2023-04-24T05:34:04;9.10;99.90
25300;DHT22;13241;51.208;4.432;2023-04-24T05:36:32;8.90;99.90
25300;DHT22;13241;51.208;4.432;2023-04-24T05:38:59;9.10;99.90
25300;DHT22;13241;51.208;4.432;2023-04-24T05:41:26;8.90;99.90
25300;DHT22;13241;51.208;4.432;2023-04-24T05:43:53;8.90;99.90
25300;DHT22;13241;51.208;4.432;2023-04-24T05:46:20;9.00;99.90
25300;DHT22;13241;51.208;4.432;2023-04-24T05:48:47;8.90;99.90
25300;DHT22;13241;51.208;4.432;2023-04-24T05:51:14;8.90;99.90
25300;DHT22;13241;51.208;4.432;2023-04-24T05:53:41;8.90;99.90
25300;DHT22;13241;51.208;4.432;2023-04-24T05:56:09;9.00;99.90
25300;DHT22;13241;51.208;4.432;2023-04-24T05:58:36;8.90;99.90
25300;DHT22;13241;51.208;4.432;2023-04-24T06:01:04;9.00;99.90
25300;DHT22;13241;51.208;4.432;2023-04-24T06:03:33;9.10;99.90
25300;DHT22;13241;51.208;4.432;2023-04-24T06:06:02;9.10;99.90
25300;DHT22;13241;51.208;4.432;2023-04-24T06:08:29;9.00;99.90
25300;DHT22;13241;51.208;4.432;2023-04-24T06:10:56;8.90;99.90
25300;DHT22;13241;51.208;4.432;2023-04-24T06:13:23;9.20;99.90
25300;DHT22;13241;51.208;4.432;2023-04-24T06:16:09;9.10;99.90
25300;DHT22;13241;51.208;4.432;2023-04-24T06:18:38;9.10;99.90
25300;DHT22;13241;51.208;4.432;2023-04-24T06:21:06;9.20;99.90
25300;DHT22;13241;51.208;4.432;2023-04-24T06:23:33;9.30;99.90
25300;DHT22;13241;51.208;4.432;2023-04-24T06:26:00;9.30;99.90
25300;DHT22;13241;51.208;4.432;2023-04-24T06:28:26;9.40;99.90
25300;DHT22;13241;51.208;4.432;2023-04-24T06:30:53;9.30;99.90
25300;DHT22;13241;51.208;4.432;2023-04-24T06:33:20;9.40;99.90
25300;DHT22;13241;51.208;4.432;2023-04-24T06:35:49;9.60;99.90
25300;DHT22;13241;51.208;4.432;2023-04-24T06:38:17;9.50;99.90
25300;DHT22;13241;51.208;4.432;2023-04-24T06:40:44;9.50;99.90
25300;DHT22;13241;51.208;4.432;2023-04-24T06:43:11;9.50;99.90
25300;DHT22;13241;51.208;4.432;2023-04-24T06:45:39;9.60;99.90
25300;DHT22;13241;51.208;4.432;2023-04-24T06:48:06;9.50;99.90
25300;DHT22;13241;51.208;4.432;2023-04-24T06:50:33;9.50;99.90
25300;DHT22;13241;51.208;4.432;2023-04-24T06:53:00;9.40;99.90
25300;DHT22;13241;51.208;4.432;2023-04-24T06:55:27;9.40;99.90
25300;DHT22;13241;51.208;4.432;2023-04-24T06:57:54;9.60;99.90
25300;DHT22;13241;51.208;4.432;2023-04-24T07:00:21;9.60;99.90
25300;DHT22;13241;51.208;4.432;2023-04-24T07:02:50;9.60;99.90
25300;DHT22;13241;51.208;4.432;2023-04-24T07:05:17;9.60;99.90
25300;DHT22;13241;51.208;4.432;2023-04-24T07:07:47;9.70;99.90
25300;DHT22;13241;51.208;4.432;2023-04-24T07:10:15;9.80;99.90
25300;DHT22;13241;51.208;4.432;2023-04-24T07:12:42;9.90;99.90
25300;DHT22;13241;51.208;4.432;2023-04-24T07:15:09;9.90;99.90
25300;DHT22;13241;51.208;4.432;2023-04-24T07:17:37;10.00;99.90
25300;DHT22;13241;51.208;4.432;2023-04-24T07:20:05;10.00;99.90
25300;DHT22;13241;51.208;4.432;2023-04-24T07:22:34;10.10;99.90
25300;DHT22;13241;51.208;4.432;2023-04-24T07:25:01;10.10;99.90
25300;DHT22;13241;51.208;4.432;2023-04-24T07:27:28;10.10;99.90
25300;DHT22;13241;51.208;4.432;2023-04-24T07:29:55;10.10;99.90
25300;DHT22;13241;51.208;4.432;2023-04-24T07:32:22;10.20;99.90
25300;DHT22;13241;51.208;4.432;2023-04-24T07:34:49;10.40;99.90
25300;DHT22;13241;51.208;4.432;2023-04-24T07:37:16;10.60;99.90
25300;DHT22;13241;51.208;4.432;2023-04-24T07:39:43;10.70;99.90
25300;DHT22;13241;51.208;4.432;2023-04-24T07:42:10;10.60;99.90
25300;DHT22;13241;51.208;4.432;2023-04-24T07:44:37;10.70;99.90
25300;DHT22;13241;51.208;4.432;2023-04-24T07:47:04;10.80;99.90
25300;DHT22;13241;51.208;4.432;2023-04-24T07:49:31;10.80;99.90
25300;DHT22;13241;51.208;4.432;2023-04-24T07:51:58;11.10;99.90
25300;DHT22;13241;51.208;4.432;2023-04-24T07:54:27;11.00;99.90
25300;DHT22;13241;51.208;4.432;2023-04-24T07:56:53;11.10;99.90
25300;DHT22;13241;51.208;4.432;2023-04-24T07:59:20;11.40;99.90
25300;DHT22;13241;51.208;4.432;2023-04-24T08:01:47;11.70;99.90
25300;DHT22;13241;51.208;4.432;2023-04-24T08:04:14;11.70;99.90
25300;DHT22;13241;51.208;4.432;2023-04-24T08:06:41;11.80;99.90
25300;DHT22;13241;51.208;4.432;2023-04-24T08:09:08;11.80;99.90
25300;DHT22;13241;51.208;4.432;2023-04-24T08:11:35;11.70;99.90
25300;DHT22;13241;51.208;4.432;2023-04-24T08:14:02;11.50;99.90
25300;DHT22;13241;51.208;4.432;2023-04-24T08:16:29;11.40;99.90
25300;DHT22;13241;51.208;4.432;2023-04-24T08:18:56;11.20;99.90
25300;DHT22;13241;51.208;4.432;2023-04-24T08:21:23;11.10;99.90
25300;DHT22;13241;51.208;4.432;2023-04-24T08:23:50;11.00;99.90
25300;DHT22;13241;51.208;4.432;2023-04-24T08:26:16;11.00;99.90
25300;DHT22;13241;51.208;4.432;2023-04-24T08:28:43;11.00;99.90
25300;DHT22;13241;51.208;4.432;2023-04-24T08:31:11;11.10;99.90
25300;DHT22;13241;51.208;4.432;2023-04-24T08:33:38;11.20;99.90
25300;DHT22;13241;51.208;4.432;2023-04-24T08:36:05;11.20;99.90
25300;DHT22;13241;51.208;4.432;2023-04-24T08:38:33;11.20;99.90
25300;DHT22;13241;51.208;4.432;2023-04-24T08:41:01;11.10;99.90
25300;DHT22;13241;51.208;4.432;2023-04-24T08:43:28;11.10;99.90
25300;DHT22;13241;51.208;4.432;2023-04-24T08:45:56;11.10;99.90
25300;DHT22;13241;51.208;4.432;2023-04-24T08:48:23;11.20;99.90
25300;DHT22;13241;51.208;4.432;2023-04-24T08:50:58;11.50;99.90
25300;DHT22;13241;51.208;4.432;2023-04-24T08:53:26;11.90;99.90
25300;DHT22;13241;51.208;4.432;2023-04-24T08:55:55;12.00;99.90
25300;DHT22;13241;51.208;4.432;2023-04-24T08:58:25;12.10;99.90
25300;DHT22;13241;51.208;4.432;2023-04-24T09:00:56;12.20;99.90
25300;DHT22;13241;51.208;4.432;2023-04-24T09:03:23;12.20;99.90
25300;DHT22;13241;51.208;4.432;2023-04-24T09:05:52;12.30;99.90
25300;DHT22;13241;51.208;4.432;2023-04-24T09:08:24;12.20;99.90
25300;DHT22;13241;51.208;4.432;2023-04-24T09:10:51;12.20;99.90
25300;DHT22;13241;51.208;4.432;2023-04-24T09:13:19;12.00;99.90
25300;DHT22;13241;51.208;4.432;2023-04-24T09:15:47;12.00;99.90
25300;DHT22;13241;51.208;4.432;2023-04-24T09:18:14;12.00;99.90
25300;DHT22;13241;51.208;4.432;2023-04-24T09:23:31;12.40;99.90
25300;DHT22;13241;51.208;4.432;2023-04-24T09:26:00;12.20;99.90
25300;DHT22;13241;51.208;4.432;2023-04-24T09:28:34;11.90;99.90
25300;DHT22;13241;51.208;4.432;2023-04-24T09:31:06;11.60;99.90
25300;DHT22;13241;51.208;4.432;2023-04-24T09:33:34;11.40;99.90
25300;DHT22;13241;51.208;4.432;2023-04-24T09:36:01;11.20;99.90
25300;DHT22;13241;51.208;4.432;2023-04-24T09:38:37;11.10;99.90
25300;DHT22;13241;51.208;4.432;2023-04-24T09:41:08;11.10;99.90
25300;DHT22;13241;51.208;4.432;2023-04-24T09:43:39;11.30;99.90
25300;DHT22;13241;51.208;4.432;2023-04-24T09:46:07;11.50;99.90
25300;DHT22;13241;51.208;4.432;2023-04-24T09:48:37;11.90;99.90
25300;DHT22;13241;51.208;4.432;2023-04-24T09:51:06;12.40;99.90
25300;DHT22;13241;51.208;4.432;2023-04-24T09:53:34;12.70;99.90
25300;DHT22;13241;51.208;4.432;2023-04-24T09:56:09;12.70;99.90
25300;DHT22;13241;51.208;4.432;2023-04-24T09:58:38;12.70;99.90
25300;DHT22;13241;51.208;4.432;2023-04-24T10:01:05;12.80;99.90
25300;DHT22;13241;51.208;4.432;2023-04-24T10:03:33;12.80;99.90
25300;DHT22;13241;51.208;4.432;2023-04-24T10:06:03;12.90;99.90
25300;DHT22;13241;51.208;4.432;2023-04-24T10:08:36;13.10;99.90
25300;DHT22;13241;51.208;4.432;2023-04-24T10:11:04;13.20;99.90
25300;DHT22;13241;51.208;4.432;2023-04-24T10:13:32;13.20;99.90
25300;DHT22;13241;51.208;4.432;2023-04-24T10:16:00;13.20;99.90
25300;DHT22;13241;51.208;4.432;2023-04-24T10:18:28;13.00;99.90
25300;DHT22;13241;51.208;4.432;2023-04-24T10:20:56;12.70;99.90
25300;DHT22;13241;51.208;4.432;2023-04-24T10:23:25;12.60;99.90
25300;DHT22;13241;51.208;4.432;2023-04-24T10:25:52;12.30;99.90
25300;DHT22;13241;51.208;4.432;2023-04-24T10:28:20;12.30;99.90
25300;DHT22;13241;51.208;4.432;2023-04-24T10:30:49;12.20;99.90
25300;DHT22;13241;51.208;4.432;2023-04-24T10:33:17;12.00;99.90
25300;DHT22;13241;51.208;4.432;2023-04-24T10:35:46;11.90;99.90
25300;DHT22;13241;51.208;4.432;2023-04-24T10:38:18;11.90;99.90
25300;DHT22;13241;51.208;4.432;2023-04-24T10:40:48;11.90;99.90
25300;DHT22;13241;51.208;4.432;2023-04-24T10:43:17;12.20;99.90
25300;DHT22;13241;51.208;4.432;2023-04-24T10:46:01;12.50;99.90
25300;DHT22;13241;51.208;4.432;2023-04-24T10:48:29;12.80;99.90
25300;DHT22;13241;51.208;4.432;2023-04-24T10:50:56;12.90;99.90
25300;DHT22;13241;51.208;4.432;2023-04-24T10:53:25;12.90;99.90
25300;DHT22;13241;51.208;4.432;2023-04-24T10:55:57;13.10;99.90
25300;DHT22;13241;51.208;4.432;2023-04-24T10:58:42;13.20;99.90
25300;DHT22;13241;51.208;4.432;2023-04-24T11:01:26;13.10;99.90
25300;DHT22;13241;51.208;4.432;2023-04-24T11:04:01;13.40;99.90
25300;DHT22;13241;51.208;4.432;2023-04-24T11:06:36;13.60;99.90
25300;DHT22;13241;51.208;4.432;2023-04-24T11:09:10;13.90;99.90
25300;DHT22;13241;51.208;4.432;2023-04-24T11:11:45;13.80;99.90
25300;DHT22;13241;51.208;4.432;2023-04-24T11:14:16;13.80;99.90
25300;DHT22;13241;51.208;4.432;2023-04-24T11:16:52;13.90;99.90
25300;DHT22;13241;51.208;4.432;2023-04-24T11:19:24;14.00;99.90
25300;DHT22;13241;51.208;4.432;2023-04-24T11:22:00;13.90;99.90
25300;DHT22;13241;51.208;4.432;2023-04-24T11:27:20;13.60;99.90
25300;DHT22;13241;51.208;4.432;2023-04-24T11:30:02;13.50;99.90
25300;DHT22;13241;51.208;4.432;2023-04-24T11:37:33;13.20;99.90
25300;DHT22;13241;51.208;4.432;2023-04-24T11:40:01;13.20;99.90
25300;DHT22;13241;51.208;4.432;2023-04-24T11:42:29;13.10;99.90
25300;DHT22;13241;51.208;4.432;2023-04-24T11:45:00;13.20;99.90
25300;DHT22;13241;51.208;4.432;2023-04-24T11:47:30;13.20;99.90
25300;DHT22;13241;51.208;4.432;2023-04-24T11:49:58;13.10;99.90
25300;DHT22;13241;51.208;4.432;2023-04-24T11:52:26;13.00;99.90
25300;DHT22;13241;51.208;4.432;2023-04-24T11:54:53;13.00;99.90
25300;DHT22;13241;51.208;4.432;2023-04-24T11:57:24;12.90;99.90
25300;DHT22;13241;51.208;4.432;2023-04-24T11:59:54;13.00;99.90
25300;DHT22;13241;51.208;4.432;2023-04-24T12:02:25;13.20;99.90
25300;DHT22;13241;51.208;4.432;2023-04-24T12:04:53;13.20;99.90
25300;DHT22;13241;51.208;4.432;2023-04-24T12:07:22;13.20;99.90
25300;DHT22;13241;51.208;4.432;2023-04-24T12:09:57;13.10;99.90
25300;DHT22;13241;51.208;4.432;2023-04-24T12:12:28;13.00;99.90
25300;DHT22;13241;51.208;4.432;2023-04-24T12:14:56;13.10;99.90
25300;DHT22;13241;51.208;4.432;2023-04-24T12:17:26;13.10;99.90
25300;DHT22;13241;51.208;4.432;2023-04-24T12:20:06;13.00;99.90
25300;DHT22;13241;51.208;4.432;2023-04-24T12:22:46;13.00;99.90
25300;DHT22;13241;51.208;4.432;2023-04-24T12:25:17;13.10;99.90
25300;DHT22;13241;51.208;4.432;2023-04-24T12:27:46;13.10;99.90
25300;DHT22;13241;51.208;4.432;2023-04-24T12:30:15;13.10;99.90
25300;DHT22;13241;51.208;4.432;2023-04-24T12:32:44;13.20;99.90
25300;DHT22;13241;51.208;4.432;2023-04-24T12:35:12;13.70;99.90
25300;DHT22;13241;51.208;4.432;2023-04-24T12:37:42;13.70;99.90
25300;DHT22;13241;51.208;4.432;2023-04-24T12:40:13;13.90;99.90
25300;DHT22;13241;51.208;4.432;2023-04-24T12:42:45;14.00;99.90
25300;DHT22;13241;51.208;4.432;2023-04-24T12:45:14;13.90;99.90
25300;DHT22;13241;51.208;4.432;2023-04-24T12:47:45;14.00;99.90
25300;DHT22;13241;51.208;4.432;2023-04-24T12:50:15;13.80;99.90
25300;DHT22;13241;51.208;4.432;2023-04-24T12:52:42;13.70;99.90
25300;DHT22;13241;51.208;4.432;2023-04-24T12:55:10;13.50;99.90
25300;DHT22;13241;51.208;4.432;2023-04-24T12:57:39;13.60;99.90
25300;DHT22;13241;51.208;4.432;2023-04-24T13:00:08;14.00;99.90
25300;DHT22;13241;51.208;4.432;2023-04-24T13:02:36;14.20;99.90
25300;DHT22;13241;51.208;4.432;2023-04-24T13:05:05;14.40;99.90
25300;DHT22;13241;51.208;4.432;2023-04-24T13:07:32;14.60;99.90
25300;DHT22;13241;51.208;4.432;2023-04-24T13:10:00;15.10;99.90
25300;DHT22;13241;51.208;4.432;2023-04-24T13:12:27;15.30;99.90
25300;DHT22;13241;51.208;4.432;2023-04-24T13:14:54;15.40;99.90
25300;DHT22;13241;51.208;4.432;2023-04-24T13:17:22;15.50;99.90
25300;DHT22;13241;51.208;4.432;2023-04-24T13:19:54;15.50;99.90
25300;DHT22;13241;51.208;4.432;2023-04-24T13:22:22;15.40;99.90
25300;DHT22;13241;51.208;4.432;2023-04-24T13:24:49;15.20;99.90
25300;DHT22;13241;51.208;4.432;2023-04-24T13:27:17;15.00;99.90
25300;DHT22;13241;51.208;4.432;2023-04-24T13:29:48;14.90;99.90
25300;DHT22;13241;51.208;4.432;2023-04-24T13:32:17;14.90;99.90
25300;DHT22;13241;51.208;4.432;2023-04-24T13:34:44;15.60;99.90
25300;DHT22;13241;51.208;4.432;2023-04-24T13:37:12;16.30;99.90
25300;DHT22;13241;51.208;4.432;2023-04-24T13:39:40;16.40;99.90
25300;DHT22;13241;51.208;4.432;2023-04-24T13:42:08;16.20;99.90
25300;DHT22;13241;51.208;4.432;2023-04-24T13:44:37;16.00;99.90
25300;DHT22;13241;51.208;4.432;2023-04-24T13:47:04;16.10;99.90
25300;DHT22;13241;51.208;4.432;2023-04-24T13:49:32;16.50;99.90
25300;DHT22;13241;51.208;4.432;2023-04-24T13:52:01;16.60;99.90
25300;DHT22;13241;51.208;4.432;2023-04-24T13:54:29;17.10;99.90
25300;DHT22;13241;51.208;4.432;2023-04-24T13:56:57;17.50;99.90
25300;DHT22;13241;51.208;4.432;2023-04-24T13:59:25;18.30;99.90
25300;DHT22;13241;51.208;4.432;2023-04-24T14:01:52;19.40;99.90
25300;DHT22;13241;51.208;4.432;2023-04-24T14:04:20;20.10;99.90
25300;DHT22;13241;51.208;4.432;2023-04-24T14:06:55;19.50;99.90
25300;DHT22;13241;51.208;4.432;2023-04-24T14:09:23;18.70;99.90
25300;DHT22;13241;51.208;4.432;2023-04-24T14:11:51;17.40;99.90
25300;DHT22;13241;51.208;4.432;2023-04-24T14:14:19;17.30;99.90
25300;DHT22;13241;51.208;4.432;2023-04-24T14:17:11;18.10;99.90
25300;DHT22;13241;51.208;4.432;2023-04-24T14:19:42;18.80;99.90
25300;DHT22;13241;51.208;4.432;2023-04-24T14:22:12;18.80;99.90
25300;DHT22;13241;51.208;4.432;2023-04-24T14:24:40;19.00;99.90
25300;DHT22;13241;51.208;4.432;2023-04-24T14:27:08;19.50;99.90
25300;DHT22;13241;51.208;4.432;2023-04-24T14:29:36;20.30;99.90
25300;DHT22;13241;51.208;4.432;2023-04-24T14:32:03;20.80;99.90
25300;DHT22;13241;51.208;4.432;2023-04-24T14:34:31;21.00;99.90
25300;DHT22;13241;51.208;4.432;2023-04-24T14:36:58;20.80;99.90
25300;DHT22;13241;51.208;4.432;2023-04-24T14:39:25;19.50;99.90
25300;DHT22;13241;51.208;4.432;2023-04-24T14:41:53;18.10;99.90
25300;DHT22;13241;51.208;4.432;2023-04-24T14:44:20;17.00;99.90
25300;DHT22;13241;51.208;4.432;2023-04-24T14:46:48;16.00;99.90
25300;DHT22;13241;51.208;4.432;2023-04-24T14:49:15;15.40;99.90
25300;DHT22;13241;51.208;4.432;2023-04-24T14:51:43;15.10;99.90
25300;DHT22;13241;51.208;4.432;2023-04-24T14:54:10;15.10;99.90
25300;DHT22;13241;51.208;4.432;2023-04-24T14:56:38;16.10;99.90
25300;DHT22;13241;51.208;4.432;2023-04-24T14:59:08;16.70;99.90
25300;DHT22;13241;51.208;4.432;2023-04-24T15:01:35;16.80;99.90
25300;DHT22;13241;51.208;4.432;2023-04-24T15:04:03;16.60;99.90
25300;DHT22;13241;51.208;4.432;2023-04-24T15:06:32;16.10;99.90
25300;DHT22;13241;51.208;4.432;2023-04-24T15:08:59;15.30;99.90
25300;DHT22;13241;51.208;4.432;2023-04-24T15:11:27;14.80;99.90
25300;DHT22;13241;51.208;4.432;2023-04-24T15:13:59;14.50;99.90
25300;DHT22;13241;51.208;4.432;2023-04-24T15:16:26;14.40;99.90
25300;DHT22;13241;51.208;4.432;2023-04-24T15:18:53;14.10;99.90
25300;DHT22;13241;51.208;4.432;2023-04-24T15:21:21;13.90;99.90
25300;DHT22;13241;51.208;4.432;2023-04-24T15:23:50;15.30;99.90
25300;DHT22;13241;51.208;4.432;2023-04-24T15:26:18;17.30;99.90
25300;DHT22;13241;51.208;4.432;2023-04-24T15:28:47;19.40;99.90
25300;DHT22;13241;51.208;4.432;2023-04-24T15:31:14;20.70;99.90
25300;DHT22;13241;51.208;4.432;2023-04-24T15:33:41;20.10;99.90
25300;DHT22;13241;51.208;4.432;2023-04-24T15:36:09;19.20;99.90
25300;DHT22;13241;51.208;4.432;2023-04-24T15:38:38;18.30;99.90
25300;DHT22;13241;51.208;4.432;2023-04-24T15:41:05;16.80;99.90
25300;DHT22;13241;51.208;4.432;2023-04-24T15:43:32;15.50;99.90
25300;DHT22;13241;51.208;4.432;2023-04-24T15:46:01;14.70;99.90
25300;DHT22;13241;51.208;4.432;2023-04-24T15:48:31;14.40;99.90
25300;DHT22;13241;51.208;4.432;2023-04-24T15:50:58;14.20;99.90
25300;DHT22;13241;51.208;4.432;2023-04-24T15:53:26;14.00;99.90
25300;DHT22;13241;51.208;4.432;2023-04-24T15:55:54;14.10;99.90